Time;durP1;ratioP1;P1;durP2;ratioP2;P2;SDS_P1;SDS_P2;PMS_P1;PMS_P2;Temp;Humidity;BMP_temperature;BMP_pressure;BME280_temperature;BME280_humidity;BME280_pressure;Samples;Min_cycle;Max_cycle;Signal;HPM_P1;HPM_P2
2024/03/09 00:00:39;;;;;;;30.70;18.57;;;3.40;99.90;;;;;;5026362;28;20175;-83
2024/03/09 00:03:09;;;;;;;30.60;19.27;;;3.40;99.90;;;;;;5034691;28;20343;-80
2024/03/09 00:05:36;;;;;;;37.23;20.00;;;3.30;99.90;;;;;;5033637;28;20248;-87
2024/03/09 00:08:03;;;;;;;33.70;19.53;;;3.30;99.90;;;;;;5009435;28;20182;-86
2024/03/09 00:10:30;;;;;;;31.07;18.97;;;3.40;99.90;;;;;;5034739;28;20514;-86
2024/03/09 00:12:57;;;;;;;31.63;19.40;;;3.30;99.90;;;;;;5027574;28;20187;-81
2024/03/09 00:15:28;;;;;;;33.97;19.43;;;3.30;99.90;;;;;;5005715;28;20187;-79
2024/03/09 00:17:58;;;;;;;32.43;19.17;;;3.30;99.90;;;;;;5008443;28;20183;-80
2024/03/09 00:20:44;;;;;;;32.80;20.50;;;3.30;99.90;;;;;;5032426;28;20178;-87
2024/03/09 00:23:10;;;;;;;35.23;19.50;;;3.20;99.90;;;;;;5018294;28;20231;-80
2024/03/09 00:25:37;;;;;;;35.20;20.97;;;3.20;99.90;;;;;;5017298;28;20187;-88
2024/03/09 00:28:03;;;;;;;33.17;20.10;;;3.20;99.90;;;;;;5013973;28;20193;-87
2024/03/09 00:30:31;;;;;;;32.10;18.97;;;3.20;99.90;;;;;;5006660;28;20179;-89
2024/03/09 00:33:05;;;;;;;32.00;19.67;;;3.20;99.90;;;;;;5022730;28;20202;-85
2024/03/09 00:35:31;;;;;;;30.37;18.80;;;3.20;99.90;;;;;;5011180;28;20168;-88
2024/03/09 00:37:58;;;;;;;39.33;20.67;;;3.20;99.90;;;;;;5019331;28;20241;-88
2024/03/09 00:40:28;;;;;;;37.77;21.33;;;3.10;99.90;;;;;;5018122;28;20273;-86
2024/03/09 00:42:56;;;;;;;34.97;20.40;;;3.10;99.90;;;;;;5012416;28;20226;-88
2024/03/09 00:45:23;;;;;;;35.03;20.03;;;3.00;99.90;;;;;;5019905;28;20378;-88
2024/03/09 00:47:49;;;;;;;31.83;20.57;;;3.00;99.90;;;;;;5024219;28;20230;-85
2024/03/09 00:50:16;;;;;;;34.40;20.23;;;3.00;99.90;;;;;;5026126;28;20206;-83
2024/03/09 00:52:43;;;;;;;37.20;21.87;;;3.00;99.90;;;;;;5029347;28;20680;-90
2024/03/09 00:55:15;;;;;;;34.60;19.70;;;2.90;99.90;;;;;;5023958;28;20225;-89
2024/03/09 00:57:45;;;;;;;32.70;20.03;;;2.90;99.90;;;;;;5029353;28;20179;-89
2024/03/09 01:00:16;;;;;;;34.63;19.83;;;2.90;99.90;;;;;;5031198;28;20261;-87
2024/03/09 01:02:43;;;;;;;37.03;21.07;;;2.90;99.90;;;;;;5012374;28;20182;-87
2024/03/09 01:05:10;;;;;;;35.07;20.43;;;2.90;99.90;;;;;;5007655;28;20174;-80
2024/03/09 01:07:39;;;;;;;35.77;20.90;;;2.90;99.90;;;;;;5014388;28;20175;-81
2024/03/09 01:10:07;;;;;;;34.40;21.03;;;2.90;99.90;;;;;;5031083;28;20175;-80
2024/03/09 01:12:34;;;;;;;35.27;20.80;;;2.90;99.90;;;;;;5029511;28;20214;-81
2024/03/09 01:15:04;;;;;;;36.60;20.80;;;2.90;99.90;;;;;;5021967;28;20206;-80
2024/03/09 01:17:30;;;;;;;39.40;21.63;;;2.80;99.90;;;;;;5016651;28;20183;-81
2024/03/09 01:19:57;;;;;;;33.53;20.33;;;2.80;99.90;;;;;;5031926;28;20185;-81
2024/03/09 01:22:23;;;;;;;38.17;22.07;;;2.80;99.90;;;;;;5016244;28;20524;-81
2024/03/09 01:24:49;;;;;;;41.37;21.60;;;2.80;99.90;;;;;;5027325;28;20347;-81
2024/03/09 01:27:16;;;;;;;34.17;20.93;;;2.70;99.90;;;;;;5006525;28;20201;-80
2024/03/09 01:29:46;;;;;;;33.50;20.83;;;2.70;99.90;;;;;;5016348;28;20179;-84
2024/03/09 01:32:16;;;;;;;33.90;20.03;;;2.60;99.90;;;;;;5033410;28;20202;-84
2024/03/09 01:34:42;;;;;;;37.13;21.77;;;2.60;99.90;;;;;;5033983;28;20248;-80
2024/03/09 01:37:12;;;;;;;38.47;21.90;;;2.60;99.90;;;;;;5033724;28;20197;-82
2024/03/09 01:39:38;;;;;;;40.77;22.27;;;2.50;99.90;;;;;;5033661;28;20190;-81
2024/03/09 01:42:05;;;;;;;34.90;19.87;;;2.50;99.90;;;;;;5025651;28;20175;-82
2024/03/09 01:44:32;;;;;;;35.57;20.20;;;2.50;99.90;;;;;;5032333;28;20623;-81
2024/03/09 01:47:00;;;;;;;35.13;20.53;;;2.50;99.90;;;;;;5024977;28;20223;-84
2024/03/09 01:49:28;;;;;;;31.93;19.93;;;2.40;99.90;;;;;;5011255;28;20289;-81
2024/03/09 01:51:55;;;;;;;35.53;20.53;;;2.40;99.90;;;;;;5029229;28;20540;-80
2024/03/09 01:54:27;;;;;;;34.33;20.60;;;2.30;99.90;;;;;;5003422;28;20648;-80
2024/03/09 01:56:57;;;;;;;34.83;20.73;;;2.30;99.90;;;;;;5027950;28;20660;-81
2024/03/09 01:59:24;;;;;;;39.40;21.37;;;2.30;99.90;;;;;;5028705;28;20190;-86
2024/03/09 02:01:50;;;;;;;34.77;20.70;;;2.30;99.90;;;;;;5030282;28;20209;-79
2024/03/09 02:04:17;;;;;;;37.53;20.73;;;2.30;99.90;;;;;;5033556;28;20174;-80
2024/03/09 02:06:43;;;;;;;37.37;20.87;;;2.30;99.90;;;;;;5031077;28;20257;-80
2024/03/09 02:09:09;;;;;;;31.67;20.30;;;2.20;99.90;;;;;;5036744;28;20620;-81
2024/03/09 02:11:42;;;;;;;34.20;20.27;;;2.10;99.90;;;;;;5036690;28;20206;-83
2024/03/09 02:14:12;;;;;;;33.20;20.00;;;2.20;99.90;;;;;;5035532;28;20227;-83
2024/03/09 02:16:38;;;;;;;36.63;20.97;;;2.10;99.90;;;;;;5018953;28;20224;-83
2024/03/09 02:19:07;;;;;;;33.97;20.63;;;2.10;99.90;;;;;;5034354;28;20210;-80
2024/03/09 02:21:34;;;;;;;36.83;20.90;;;2.10;99.90;;;;;;5011630;28;20525;-81
2024/03/09 02:24:07;;;;;;;37.97;22.57;;;2.00;99.90;;;;;;5036182;28;20230;-79
2024/03/09 02:26:38;;;;;;;35.90;20.73;;;2.00;99.90;;;;;;5459320;22;20197;-78
2024/03/09 02:29:09;;;;;;;36.23;21.33;;;2.00;99.90;;;;;;5047985;28;20241;-81
2024/03/09 02:31:36;;;;;;;36.67;20.77;;;2.00;99.90;;;;;;5052352;28;20737;-80
2024/03/09 02:34:02;;;;;;;37.23;20.90;;;2.00;99.90;;;;;;5054855;28;20232;-80
2024/03/09 02:36:30;;;;;;;35.77;20.60;;;2.00;99.90;;;;;;5056238;28;20206;-82
2024/03/09 02:38:57;;;;;;;43.27;23.27;;;2.00;99.90;;;;;;5054825;28;20313;-81
2024/03/09 02:41:24;;;;;;;39.53;22.20;;;1.90;99.90;;;;;;5056041;28;20182;-82
2024/03/09 02:43:52;;;;;;;37.57;21.83;;;1.90;99.90;;;;;;5054581;28;20191;-79
2024/03/09 02:46:21;;;;;;;36.33;21.53;;;1.90;99.90;;;;;;5056034;28;20551;-80
2024/03/09 02:48:48;;;;;;;37.97;22.07;;;1.90;99.90;;;;;;5056019;28;20180;-79
2024/03/09 02:51:16;;;;;;;38.73;22.13;;;1.90;99.90;;;;;;5054632;28;20528;-79
2024/03/09 02:53:45;;;;;;;35.93;21.10;;;1.90;99.90;;;;;;5054491;28;20181;-79
2024/03/09 02:56:12;;;;;;;36.30;21.83;;;1.90;99.90;;;;;;5054746;28;20292;-80
2024/03/09 02:58:38;;;;;;;34.13;21.37;;;1.90;99.90;;;;;;5051506;28;20261;-79
2024/03/09 03:01:07;;;;;;;35.33;21.13;;;1.90;99.90;;;;;;5054305;28;20189;-80
2024/03/09 03:06:21;;;;;;;38.07;21.37;;;1.90;99.90;;;;;;5054031;28;20165;-79
2024/03/09 03:08:49;;;;;;;38.23;22.57;;;1.80;99.90;;;;;;5048239;28;20280;-80
2024/03/09 03:11:19;;;;;;;38.37;21.53;;;1.80;99.90;;;;;;5055130;28;20201;-80
2024/03/09 03:13:46;;;;;;;42.40;21.50;;;1.80;99.90;;;;;;5054880;28;20254;-80
2024/03/09 03:16:25;;;;;;;34.40;20.93;;;1.80;99.90;;;;;;5050460;28;20490;-81
2024/03/09 03:19:19;;;;;;;40.90;21.80;;;1.80;99.90;;;;;;5054929;28;20201;-79
2024/03/09 03:21:45;;;;;;;34.63;21.10;;;1.80;99.90;;;;;;5052691;28;20197;-80
2024/03/09 03:24:13;;;;;;;37.10;21.77;;;1.80;99.90;;;;;;5054945;28;20174;-80
2024/03/09 03:26:39;;;;;;;36.00;20.87;;;1.80;99.90;;;;;;5055229;28;20181;-79
2024/03/09 03:29:04;;;;;;;41.50;21.57;;;1.70;99.90;;;;;;5038901;28;20227;-86
2024/03/09 03:31:30;;;;;;;39.37;21.07;;;1.70;99.90;;;;;;5055083;28;20251;-85
2024/03/09 03:33:56;;;;;;;34.80;21.20;;;1.60;99.90;;;;;;5046886;28;20184;-79
2024/03/09 03:36:26;;;;;;;38.20;21.63;;;1.70;99.90;;;;;;5043454;28;20205;-80
2024/03/09 03:38:54;;;;;;;43.17;21.13;;;1.70;99.90;;;;;;5055079;28;20177;-80
2024/03/09 03:41:23;;;;;;;36.10;20.30;;;1.60;99.90;;;;;;5054879;28;20270;-80
2024/03/09 03:43:49;;;;;;;35.93;20.80;;;1.60;99.90;;;;;;5054793;28;20185;-82
2024/03/09 03:46:16;;;;;;;36.70;20.80;;;1.60;99.90;;;;;;5046379;28;20627;-80
2024/03/09 03:48:45;;;;;;;37.63;21.00;;;1.60;99.90;;;;;;5054840;28;20177;-79
2024/03/09 03:51:12;;;;;;;36.63;20.73;;;1.50;99.90;;;;;;5053387;28;20256;-79
2024/03/09 03:53:40;;;;;;;36.63;21.07;;;1.50;99.90;;;;;;5054859;28;20571;-80
2024/03/09 03:56:08;;;;;;;35.17;22.17;;;1.50;99.90;;;;;;5054693;28;20284;-79
2024/03/09 03:58:35;;;;;;;36.87;20.53;;;1.50;99.90;;;;;;5047674;28;20524;-80
2024/03/09 04:01:02;;;;;;;38.50;21.30;;;1.50;99.90;;;;;;5046777;28;20276;-88
2024/03/09 04:03:31;;;;;;;38.30;20.83;;;1.50;99.90;;;;;;5045161;28;20189;-79
2024/03/09 04:05:58;;;;;;;37.57;20.93;;;1.50;99.90;;;;;;5054518;28;20236;-80
2024/03/09 04:08:24;;;;;;;39.23;21.57;;;1.50;99.90;;;;;;5053793;28;20296;-79
2024/03/09 04:10:51;;;;;;;32.90;19.67;;;1.50;99.90;;;;;;5053185;28;20217;-80
2024/03/09 04:13:21;;;;;;;34.63;20.87;;;1.50;99.90;;;;;;5051126;28;20190;-79
2024/03/09 04:15:47;;;;;;;39.10;21.70;;;1.40;99.90;;;;;;5053392;28;20245;-89
2024/03/09 04:18:15;;;;;;;34.70;21.47;;;1.40;99.90;;;;;;5053024;28;20193;-80
2024/03/09 04:20:43;;;;;;;36.27;20.17;;;1.40;99.90;;;;;;5054178;28;20189;-80
2024/03/09 04:23:15;;;;;;;37.00;21.10;;;1.40;99.90;;;;;;5053213;28;20197;-84
2024/03/09 04:25:43;;;;;;;36.90;20.97;;;1.30;99.90;;;;;;5054337;28;20646;-79
2024/03/09 04:28:13;;;;;;;41.97;21.40;;;1.30;99.90;;;;;;5052057;28;20229;-80
2024/03/09 04:30:42;;;;;;;37.00;19.73;;;1.30;99.90;;;;;;5054439;28;20197;-90
2024/03/09 04:33:11;;;;;;;34.70;19.77;;;1.30;99.90;;;;;;5052790;28;20204;-80
2024/03/09 04:35:37;;;;;;;37.73;20.33;;;1.30;99.90;;;;;;5052998;28;20186;-79
2024/03/09 04:38:05;;;;;;;36.87;19.90;;;1.20;99.90;;;;;;5044443;28;20189;-79
2024/03/09 04:40:33;;;;;;;38.77;21.17;;;1.20;99.90;;;;;;5053806;28;20195;-84
2024/03/09 04:43:03;;;;;;;36.27;21.20;;;1.20;99.90;;;;;;5035849;28;20189;-78
2024/03/09 04:45:30;;;;;;;35.33;20.20;;;1.20;99.90;;;;;;5038108;28;20186;-79
2024/03/09 04:47:59;;;;;;;35.27;20.20;;;1.20;99.90;;;;;;5053677;28;20197;-78
2024/03/09 04:50:25;;;;;;;34.27;20.20;;;1.10;99.90;;;;;;5054043;28;20508;-79
2024/03/09 04:52:51;;;;;;;33.40;20.33;;;1.10;99.90;;;;;;5048332;28;20285;-80
2024/03/09 04:55:18;;;;;;;37.30;20.90;;;1.10;99.90;;;;;;5054031;28;20272;-78
2024/03/09 04:57:45;;;;;;;36.40;20.63;;;1.10;99.90;;;;;;5053497;28;20209;-87
2024/03/09 05:00:15;;;;;;;35.23;20.67;;;1.10;99.90;;;;;;5053021;28;20555;-79
2024/03/09 05:02:45;;;;;;;38.50;21.27;;;1.10;99.90;;;;;;5042022;28;20174;-79
2024/03/09 05:05:17;;;;;;;34.60;20.10;;;1.00;99.90;;;;;;5052755;28;20528;-79
2024/03/09 05:07:47;;;;;;;34.00;20.83;;;1.00;99.90;;;;;;5047015;28;20228;-79
2024/03/09 05:10:17;;;;;;;37.33;20.87;;;1.00;99.90;;;;;;5051812;28;20679;-80
2024/03/09 05:12:56;;;;;;;36.60;19.80;;;1.00;99.90;;;;;;5053506;28;20248;-79
2024/03/09 05:15:29;;;;;;;35.43;20.33;;;1.00;99.90;;;;;;5052390;28;20184;-80
2024/03/09 05:17:55;;;;;;;37.40;19.77;;;1.00;99.90;;;;;;5047985;28;20190;-80
2024/03/09 05:20:22;;;;;;;36.43;20.67;;;1.00;99.90;;;;;;5057376;28;20178;-79
2024/03/09 05:22:57;;;;;;;35.63;21.00;;;1.00;99.90;;;;;;5057674;28;20178;-78
2024/03/09 05:25:23;;;;;;;36.60;20.70;;;0.90;99.90;;;;;;5057335;28;20300;-81
2024/03/09 05:27:51;;;;;;;34.80;21.03;;;0.90;99.90;;;;;;5055210;28;20320;-78
2024/03/09 05:30:19;;;;;;;35.23;19.47;;;0.90;99.90;;;;;;5055059;28;20316;-79
2024/03/09 05:33:00;;;;;;;37.63;20.47;;;0.90;99.90;;;;;;5057589;28;20308;-79
2024/03/09 05:35:30;;;;;;;38.70;20.97;;;0.90;99.90;;;;;;5057349;28;20177;-79
2024/03/09 05:38:00;;;;;;;35.53;19.77;;;0.90;99.90;;;;;;5057301;28;20190;-79
2024/03/09 05:40:28;;;;;;;35.77;20.70;;;0.90;99.90;;;;;;5055866;28;20179;-79
2024/03/09 05:42:55;;;;;;;33.43;20.10;;;0.90;99.90;;;;;;5056817;28;20181;-79
2024/03/09 05:45:22;;;;;;;35.40;20.47;;;0.90;99.90;;;;;;5056889;28;20264;-79
2024/03/09 05:47:50;;;;;;;39.77;20.90;;;0.80;99.90;;;;;;5051892;28;20264;-79
2024/03/09 05:50:16;;;;;;;39.00;22.27;;;0.90;99.90;;;;;;5048679;28;20491;-79
2024/03/09 05:52:44;;;;;;;37.07;20.43;;;0.90;99.90;;;;;;5047543;28;20220;-79
2024/03/09 05:55:11;;;;;;;44.13;19.67;;;0.90;99.90;;;;;;5056975;28;20256;-78
2024/03/09 05:57:39;;;;;;;37.70;20.43;;;0.90;99.90;;;;;;5056312;28;20179;-79
2024/03/09 06:00:06;;;;;;;36.47;20.13;;;0.90;99.90;;;;;;5055232;28;20184;-78
2024/03/09 06:02:39;;;;;;;36.70;20.83;;;0.90;99.90;;;;;;5056456;28;20182;-84
2024/03/09 06:05:07;;;;;;;37.30;19.50;;;0.90;99.90;;;;;;5055917;28;20257;-78
2024/03/09 06:07:44;;;;;;;37.10;20.97;;;0.90;99.90;;;;;;5056329;28;20262;-79
2024/03/09 06:10:14;;;;;;;35.27;19.70;;;0.90;99.90;;;;;;5052905;28;20686;-79
2024/03/09 06:12:47;;;;;;;36.80;20.97;;;0.90;99.90;;;;;;5056067;28;20289;-78
2024/03/09 06:15:16;;;;;;;35.70;21.13;;;0.90;99.90;;;;;;5055093;28;20631;-84
2024/03/09 06:17:49;;;;;;;32.00;19.87;;;0.90;99.90;;;;;;5050908;28;20182;-78
2024/03/09 06:20:16;;;;;;;35.17;21.00;;;0.90;99.90;;;;;;5056074;28;20623;-78
2024/03/09 06:22:43;;;;;;;39.53;20.70;;;0.90;99.90;;;;;;5056448;28;20190;-79
2024/03/09 06:25:12;;;;;;;33.83;20.23;;;1.00;99.90;;;;;;5052944;28;20185;-79
2024/03/09 06:27:39;;;;;;;33.37;19.83;;;1.00;99.90;;;;;;5055682;28;20218;-79
2024/03/09 06:30:08;;;;;;;36.17;20.63;;;1.00;99.90;;;;;;5051611;28;20182;-78
2024/03/09 06:32:37;;;;;;;37.43;20.67;;;1.00;99.90;;;;;;5056003;28;20240;-78
2024/03/09 06:35:04;;;;;;;32.87;18.80;;;1.10;99.90;;;;;;5048176;28;20529;-79
2024/03/09 06:37:30;;;;;;;36.37;20.93;;;1.10;99.90;;;;;;5054624;28;20214;-79
2024/03/09 06:39:56;;;;;;;38.00;20.60;;;1.10;99.90;;;;;;5055950;28;20187;-79
2024/03/09 06:42:24;;;;;;;35.83;20.13;;;1.20;99.90;;;;;;5047240;28;20181;-78
2024/03/09 06:44:49;;;;;;;33.90;20.10;;;1.20;99.90;;;;;;5055725;28;20284;-78
2024/03/09 06:47:16;;;;;;;33.60;19.63;;;1.20;99.90;;;;;;5053660;28;20683;-78
2024/03/09 06:49:42;;;;;;;31.47;18.77;;;1.20;99.90;;;;;;5052906;28;20189;-79
2024/03/09 06:52:11;;;;;;;33.37;19.53;;;1.30;99.90;;;;;;5053239;28;20206;-79
2024/03/09 06:54:38;;;;;;;35.37;19.63;;;1.30;99.90;;;;;;5053092;28;20181;-79
2024/03/09 06:57:04;;;;;;;36.93;19.57;;;1.40;99.90;;;;;;5050408;28;20197;-82
2024/03/09 06:59:29;;;;;;;34.67;19.67;;;1.40;99.90;;;;;;5051308;28;20223;-79
2024/03/09 07:02:00;;;;;;;32.97;19.20;;;1.50;99.90;;;;;;5053926;28;20225;-79
2024/03/09 07:04:27;;;;;;;38.47;20.10;;;1.50;99.90;;;;;;5052696;28;20702;-79
2024/03/09 07:06:53;;;;;;;33.47;19.33;;;1.60;99.90;;;;;;5050172;28;20209;-80
2024/03/09 07:09:20;;;;;;;33.60;19.47;;;1.70;99.90;;;;;;5053426;28;20189;-79
2024/03/09 07:11:46;;;;;;;38.47;20.40;;;1.70;99.90;;;;;;5053995;28;20217;-80
2024/03/09 07:14:12;;;;;;;36.17;20.03;;;1.80;99.90;;;;;;5054939;28;20260;-80
2024/03/09 07:16:38;;;;;;;34.53;18.53;;;1.80;99.90;;;;;;5049023;28;20624;-79
2024/03/09 07:19:07;;;;;;;36.47;20.10;;;1.90;99.90;;;;;;5054874;28;20189;-80
2024/03/09 07:21:33;;;;;;;31.83;19.60;;;1.90;99.90;;;;;;5055231;28;20616;-79
2024/03/09 07:24:00;;;;;;;30.93;19.60;;;2.00;99.90;;;;;;5054996;28;20174;-81
2024/03/09 07:26:26;;;;;;;35.73;19.53;;;2.10;99.90;;;;;;5054873;28;20638;-80
2024/03/09 07:28:56;;;;;;;31.73;18.73;;;2.20;99.90;;;;;;5049677;28;20214;-80
2024/03/09 07:31:22;;;;;;;33.17;19.37;;;2.20;99.90;;;;;;5053882;28;20322;-80
2024/03/09 07:33:50;;;;;;;33.77;19.93;;;2.30;99.90;;;;;;5053984;28;20178;-80
2024/03/09 07:36:20;;;;;;;33.60;19.00;;;2.40;99.90;;;;;;5044791;28;20178;-80
2024/03/09 07:38:48;;;;;;;30.70;18.47;;;2.40;99.90;;;;;;5049002;28;20181;-79
2024/03/09 07:41:20;;;;;;;33.17;18.93;;;2.50;99.90;;;;;;5054490;28;20186;-79
2024/03/09 07:43:46;;;;;;;35.17;19.77;;;2.50;99.90;;;;;;5053208;28;20181;-81
2024/03/09 07:46:12;;;;;;;35.87;20.00;;;2.60;99.90;;;;;;5050504;28;20622;-80
2024/03/09 07:48:39;;;;;;;35.70;20.60;;;2.70;99.90;;;;;;5053522;28;20185;-80
2024/03/09 07:51:08;;;;;;;32.17;18.10;;;2.80;99.90;;;;;;5053418;28;20209;-79
2024/03/09 07:53:35;;;;;;;34.77;19.50;;;2.80;99.90;;;;;;5054669;28;20185;-80
2024/03/09 07:56:02;;;;;;;30.60;19.20;;;2.90;99.90;;;;;;5054333;28;20184;-80
2024/03/09 07:58:27;;;;;;;29.97;18.97;;;2.90;99.90;;;;;;5041077;28;20186;-80
2024/03/09 08:00:53;;;;;;;40.63;20.80;;;3.00;99.90;;;;;;5040111;28;20190;-79
2024/03/09 08:03:20;;;;;;;33.10;19.20;;;3.00;99.90;;;;;;5054439;28;20213;-81
2024/03/09 08:05:46;;;;;;;31.73;18.27;;;3.10;99.90;;;;;;5053273;28;20629;-81
2024/03/09 08:08:11;;;;;;;32.30;18.83;;;3.20;99.90;;;;;;5045916;28;20178;-81
2024/03/09 08:10:47;;;;;;;35.70;18.87;;;3.30;99.90;;;;;;5054231;28;20189;-81
2024/03/09 08:13:14;;;;;;;33.03;19.43;;;3.40;99.90;;;;;;5037197;28;20204;-81
2024/03/09 08:15:40;;;;;;;30.50;19.07;;;3.50;99.90;;;;;;5052302;28;20216;-81
2024/03/09 08:18:09;;;;;;;33.57;19.30;;;3.60;99.90;;;;;;5047154;28;20227;-81
2024/03/09 08:20:35;;;;;;;30.97;18.73;;;3.60;99.90;;;;;;5053028;28;20186;-81
2024/03/09 08:23:01;;;;;;;33.67;18.97;;;3.70;99.90;;;;;;5052733;28;20232;-81
2024/03/09 08:25:27;;;;;;;32.83;18.80;;;3.80;99.90;;;;;;5053938;28;20178;-81
2024/03/09 08:27:58;;;;;;;31.40;18.53;;;3.90;99.90;;;;;;5052134;28;20272;-81
2024/03/09 08:30:25;;;;;;;32.73;18.07;;;4.00;99.90;;;;;;5053899;28;20205;-81
2024/03/09 08:32:54;;;;;;;33.17;19.10;;;4.10;99.90;;;;;;5041312;28;20320;-81
2024/03/09 08:35:21;;;;;;;32.07;18.97;;;4.20;99.90;;;;;;5043850;28;20247;-82
2024/03/09 08:37:48;;;;;;;34.17;19.70;;;4.30;99.90;;;;;;5038961;28;20268;-80
2024/03/09 08:40:20;;;;;;;35.23;20.00;;;4.30;99.90;;;;;;5043785;28;20185;-81
2024/03/09 08:42:54;;;;;;;30.63;19.10;;;4.30;99.90;;;;;;5037711;28;20170;-80
2024/03/09 08:45:21;;;;;;;34.73;19.63;;;4.40;99.90;;;;;;5039249;28;20178;-80
2024/03/09 08:47:51;;;;;;;33.17;18.87;;;4.50;99.90;;;;;;5036598;28;20190;-80
2024/03/09 08:50:18;;;;;;;33.53;19.77;;;4.50;99.90;;;;;;5039008;28;20174;-80
2024/03/09 08:52:47;;;;;;;31.27;19.40;;;4.60;99.90;;;;;;5039796;28;20208;-82
2024/03/09 08:55:14;;;;;;;29.87;18.20;;;4.70;99.90;;;;;;5049789;28;20735;-81
2024/03/09 08:57:46;;;;;;;31.60;18.83;;;4.90;99.90;;;;;;5041805;28;20217;-79
2024/03/09 09:00:15;;;;;;;29.97;19.27;;;5.00;99.90;;;;;;5044537;28;20228;-80
2024/03/09 09:02:41;;;;;;;29.70;18.60;;;5.00;99.90;;;;;;5045331;28;20201;-81
2024/03/09 09:05:14;;;;;;;30.17;18.13;;;5.10;99.90;;;;;;5055563;28;20536;-80
2024/03/09 09:07:46;;;;;;;27.40;17.70;;;5.10;99.90;;;;;;5056161;28;20674;-78
2024/03/09 09:10:14;;;;;;;33.30;17.90;;;5.30;99.90;;;;;;5057290;28;20174;-81
2024/03/09 09:12:44;;;;;;;28.53;17.37;;;5.30;99.90;;;;;;5056664;28;20205;-79
2024/03/09 09:15:11;;;;;;;31.03;18.13;;;5.30;99.90;;;;;;5055775;28;20311;-82
2024/03/09 09:17:40;;;;;;;29.17;17.80;;;5.40;99.90;;;;;;5050682;28;20235;-80
2024/03/09 09:20:12;;;;;;;28.47;17.87;;;5.50;99.90;;;;;;5055867;28;20208;-79
2024/03/09 09:22:43;;;;;;;29.03;18.27;;;5.40;99.90;;;;;;5057478;28;20232;-80
2024/03/09 09:25:12;;;;;;;25.23;17.20;;;5.60;99.90;;;;;;5055840;28;20192;-79
2024/03/09 09:27:38;;;;;;;30.53;18.63;;;5.60;99.90;;;;;;5049874;28;20225;-79
2024/03/09 09:30:05;;;;;;;29.50;18.00;;;5.70;99.90;;;;;;5056798;28;20247;-81
2024/03/09 09:32:31;;;;;;;27.77;17.60;;;5.80;99.90;;;;;;5040109;28;20304;-79
2024/03/09 09:34:57;;;;;;;28.93;17.97;;;5.90;99.90;;;;;;5057010;28;20637;-80
2024/03/09 09:37:23;;;;;;;29.10;17.47;;;5.90;99.90;;;;;;5055466;28;20186;-81
2024/03/09 09:39:51;;;;;;;29.23;18.60;;;5.90;99.90;;;;;;5057059;28;20185;-81
2024/03/09 09:42:18;;;;;;;34.77;18.60;;;5.90;99.90;;;;;;5056901;28;20185;-82
2024/03/09 09:44:45;;;;;;;28.07;18.07;;;5.80;99.90;;;;;;5056713;28;20185;-81
2024/03/09 09:47:12;;;;;;;30.77;18.23;;;6.00;99.90;;;;;;5055469;28;20204;-82
2024/03/09 09:49:41;;;;;;;29.57;18.90;;;5.80;99.90;;;;;;5055308;28;20181;-81
2024/03/09 09:52:09;;;;;;;30.07;18.23;;;5.80;99.90;;;;;;5047113;28;20217;-80
2024/03/09 09:54:37;;;;;;;28.90;18.03;;;5.70;99.90;;;;;;5056442;28;20496;-80
2024/03/09 09:57:03;;;;;;;28.57;17.97;;;5.80;99.90;;;;;;5048618;28;20186;-81
2024/03/09 09:59:30;;;;;;;28.17;17.77;;;5.90;99.90;;;;;;5054847;28;20567;-80
2024/03/09 10:01:57;;;;;;;30.87;19.10;;;6.10;99.90;;;;;;5056723;28;20177;-81
2024/03/09 10:04:23;;;;;;;32.93;18.77;;;6.20;99.90;;;;;;5056543;28;20195;-80
2024/03/09 10:06:53;;;;;;;29.70;18.20;;;6.40;99.90;;;;;;5049621;28;20210;-80
2024/03/09 10:09:29;;;;;;;33.43;18.50;;;6.30;99.90;;;;;;5046607;28;20197;-82
2024/03/09 10:11:55;;;;;;;27.00;17.63;;;6.30;99.90;;;;;;5056336;28;20205;-80
2024/03/09 10:14:29;;;;;;;27.07;18.57;;;6.30;99.90;;;;;;5055930;28;20178;-82
2024/03/09 10:16:56;;;;;;;28.13;18.43;;;6.30;99.90;;;;;;5051100;28;20181;-82
2024/03/09 10:19:22;;;;;;;28.63;18.83;;;6.40;99.90;;;;;;5054757;28;20220;-81
2024/03/09 10:21:54;;;;;;;27.63;18.27;;;6.50;99.90;;;;;;5056300;28;20549;-81
2024/03/09 10:24:20;;;;;;;27.13;17.20;;;6.50;99.90;;;;;;5056013;28;20205;-81
2024/03/09 10:26:46;;;;;;;27.03;17.27;;;6.50;99.90;;;;;;5050488;28;20235;-82
2024/03/09 10:29:15;;;;;;;26.07;17.47;;;6.50;99.90;;;;;;5053261;28;20234;-81
2024/03/09 10:31:43;;;;;;;26.53;16.50;;;6.50;99.90;;;;;;5048589;28;20224;-82
2024/03/09 10:34:12;;;;;;;28.63;18.30;;;6.40;99.90;;;;;;5055727;28;20668;-80
2024/03/09 10:36:39;;;;;;;30.97;17.60;;;6.70;99.90;;;;;;5055726;28;20178;-87
2024/03/09 10:39:05;;;;;;;25.20;16.80;;;6.70;99.90;;;;;;5055853;28;20177;-81
2024/03/09 10:41:36;;;;;;;27.47;16.73;;;6.60;99.90;;;;;;5038253;28;20205;-80
2024/03/09 10:44:03;;;;;;;28.17;17.50;;;6.60;99.90;;;;;;5054443;28;20248;-81
2024/03/09 10:46:32;;;;;;;28.90;16.47;;;6.60;99.90;;;;;;5051295;28;20209;-81
2024/03/09 10:48:58;;;;;;;24.20;15.57;;;6.80;99.90;;;;;;5055630;28;20182;-81
2024/03/09 10:51:37;;;;;;;25.47;16.33;;;7.00;99.90;;;;;;5054250;28;20649;-80
2024/03/09 10:54:23;;;;;;;23.30;16.13;;;7.00;99.90;;;;;;5047688;28;20193;-82
2024/03/09 10:56:51;;;;;;;26.13;15.93;;;7.10;99.90;;;;;;5034094;28;20198;-84
2024/03/09 10:59:21;;;;;;;25.50;16.60;;;7.10;99.90;;;;;;5053922;28;20197;-82
2024/03/09 11:01:54;;;;;;;23.27;15.67;;;7.20;99.90;;;;;;5054410;28;20203;-80
2024/03/09 11:04:26;;;;;;;22.07;14.67;;;7.40;99.90;;;;;;5039960;28;20187;-78
2024/03/09 11:06:55;;;;;;;22.07;14.60;;;7.50;99.90;;;;;;5036498;28;20270;-81
2024/03/09 11:09:34;;;;;;;22.23;14.77;;;7.60;99.90;;;;;;5043504;28;20232;-85
2024/03/09 11:12:05;;;;;;;26.30;15.43;;;7.70;99.90;;;;;;5034730;28;20218;-82
2024/03/09 11:14:33;;;;;;;24.97;16.30;;;7.80;99.90;;;;;;5024852;28;20193;-82
2024/03/09 11:17:00;;;;;;;21.37;14.93;;;7.80;99.90;;;;;;5034277;28;20190;-79
2024/03/09 11:19:26;;;;;;;21.47;14.57;;;7.90;99.90;;;;;;5032475;28;20278;-81
2024/03/09 11:21:53;;;;;;;23.17;14.77;;;7.80;99.90;;;;;;5034422;28;20194;-82
2024/03/09 11:24:20;;;;;;;23.93;15.23;;;7.90;99.90;;;;;;5033554;28;20182;-81
2024/03/09 11:26:52;;;;;;;22.97;15.43;;;8.00;99.90;;;;;;5034783;28;20186;-79
2024/03/09 11:29:22;;;;;;;24.60;15.27;;;8.20;99.90;;;;;;5036406;28;20198;-81
2024/03/09 11:31:51;;;;;;;24.43;15.23;;;8.40;99.90;;;;;;5047037;28;20217;-80
2024/03/09 11:34:21;;;;;;;25.57;16.57;;;8.50;99.90;;;;;;5035904;28;20270;-79
2024/03/09 11:36:52;;;;;;;22.20;15.40;;;8.50;99.90;;;;;;5039568;28;20182;-81
2024/03/09 11:39:22;;;;;;;23.37;15.23;;;8.40;99.90;;;;;;5044815;28;20178;-81
2024/03/09 11:41:50;;;;;;;22.20;14.73;;;8.40;99.90;;;;;;5035342;28;20224;-81
2024/03/09 11:44:20;;;;;;;21.10;14.40;;;8.20;99.90;;;;;;5035508;28;20186;-84
2024/03/09 11:46:47;;;;;;;24.43;15.80;;;8.10;99.90;;;;;;5037220;28;20184;-82
2024/03/09 11:49:14;;;;;;;25.73;16.23;;;8.10;99.90;;;;;;5034524;28;20179;-81
2024/03/09 11:51:40;;;;;;;25.60;16.53;;;8.30;99.90;;;;;;5033697;28;20543;-81
2024/03/09 11:54:09;;;;;;;24.97;16.33;;;8.50;99.90;;;;;;5032567;28;20186;-81
2024/03/09 11:56:36;;;;;;;23.37;16.23;;;8.50;99.90;;;;;;5034366;28;20208;-79
2024/03/09 11:59:06;;;;;;;24.37;16.10;;;8.40;99.90;;;;;;5042572;28;20184;-81
2024/03/09 12:01:36;;;;;;;25.03;16.07;;;8.30;99.90;;;;;;5030606;28;20169;-82
2024/03/09 12:04:03;;;;;;;23.87;15.97;;;8.20;99.90;;;;;;5038688;28;20181;-81
2024/03/09 12:06:30;;;;;;;23.97;15.37;;;8.20;99.90;;;;;;5033388;28;20281;-80
2024/03/09 12:08:57;;;;;;;25.27;16.33;;;8.20;99.90;;;;;;5031949;28;20182;-80
2024/03/09 12:11:24;;;;;;;27.23;17.07;;;8.20;99.90;;;;;;5034935;28;20206;-86
2024/03/09 12:13:50;;;;;;;27.37;16.77;;;8.20;99.90;;;;;;5033191;28;20178;-81
2024/03/09 12:16:17;;;;;;;22.13;15.80;;;8.20;99.90;;;;;;5052015;28;20193;-81
2024/03/09 12:18:50;;;;;;;21.75;15.40;;;8.40;99.90;;;;;;5046606;28;20216;-80
2024/03/09 12:21:19;;;;;;;22.97;15.90;;;8.60;99.90;;;;;;5050880;28;20185;-80
2024/03/09 12:23:58;;;;;;;24.35;17.15;;;8.60;99.90;;;;;;5048767;28;20656;-82
2024/03/09 12:26:25;;;;;;;21.87;15.00;;;9.00;99.90;;;;;;5051294;28;20256;-86
2024/03/09 12:28:59;;;;;;;27.80;16.98;;;9.30;99.90;;;;;;5051491;28;20328;-84
2024/03/09 12:31:26;;;;;;;21.98;14.70;;;9.40;99.90;;;;;;5045374;28;20293;-81
2024/03/09 12:33:55;;;;;;;22.90;15.60;;;9.40;99.90;;;;;;5054055;28;20197;-82
2024/03/09 12:36:21;;;;;;;22.98;15.43;;;9.60;99.90;;;;;;5052464;28;20271;-82
2024/03/09 12:38:48;;;;;;;23.58;15.38;;;9.90;99.90;;;;;;5052532;28;20339;-82
2024/03/09 12:41:52;;;;;;;22.23;14.90;;;10.00;99.90;;;;;;5053761;28;20515;-81
2024/03/09 12:44:18;;;;;;;23.90;14.95;;;10.10;99.90;;;;;;5036584;28;20247;-82